Bronson, Ohio
Current Conditions -  °F | °C
As of 9:53 AM on Friday 26 Dec 2014 (Local Time) from KLPR Reporting Station
Clear Clear  
Wind Chill: 31°   Ceiling: Unl
Heat Index: 37°   Visibility: 10mi
Dew Point: 32°   Wind: 8mph
Humidity: 82%   Direction: 190°S
Pressure: 30.2"   Gusts: NA
Location:  41.2186°N, 82.5851°W
Report Text: KLPR 261453Z AUTO 19007KT 10SM CLR 03/00 A3020 RMK AO2 SLP234 T00280000 58002 TSNO
Loading
Personal Weather Stations






























Interactive Weather Map New forecast layout! Learn more

10-Day Weather Forecast

Advertisements
Track Severe Weather on mobile